< < Back
Terminal Aerodrome Forecast


Current Version              Previous Versions:   1  2  3  4  5  6  7  8  9  

Terminal Aerodrome Forecast

489
FTUS44 KOHX 200600 AAA
TAFCSV
TAF AMD
KCSV 200603Z 2006/2106 00000KT P6SM BCFG SKC
      TEMPO 2010/2014 1SM BR
     FM201400 09004KT P6SM SCT250=

Latest METAR

128
SAUS70 KWBC 200600 RRH
MTRCSV
METAR KCSV 200553Z AUTO 00000KT 2 1/2SM HZ CLR 09/04 A3019 RMK AO2
SLP214 T00890039 10172 20078 402170078 57003


USA.gov is the U.S. government's official web portal to all federal, state and local government web resources and services.